»·PEaware :: N7791P KAVX-KSAN

N7791P :: KAVX-KSAN

FLIGHT INFORMATION

Flight Status: Arrived
Operator: Privately registered:
United States
More flights under this callsign
Pilot: Dheeraj L. (18560)
Aircraft: PIPER PA-24 COMMANCHE
(PA24)
More flights by this aircraft type
Origin: KAVX Catalina
United States
Destination: KSAN San Diego Intl-Lindbergh
United States
More flights between these airports :: More routes between these airports
Route: SXC V208 OCN V23 MZB
File this flight plan on PilotEdge
Remarks: I-8 Constructive feedback is strongly appreciated.
Altitude:
(Current/Filed)
5,000ft
Speed:
(Current/Filed)
160kts
Departed: 06-May-18 02:39 PM
Arrived: 06-May-18 03:31 PM
Distance/Time
Traveled:
74nm/0:52
Distance/Time
To Go:
Arrived

Flight Plot

Page will automatically refresh every two minutes.


Map Options




Map Legend


Flown Route
Filed Route
Departure Airport
Arrival Airport
Navaid (VOR, NDB)
Fix

Horizontal Profiles

Position Reports

Time Latitude Longitude Heading Altitude Ground
Speed
06-May-18 14:08 33.403238 -118.415553 301 1605ft 0kts
06-May-18 14:09 33.403238 -118.415553 301 1605ft 0kts
06-May-18 14:10 33.403238 -118.415553 301 1605ft 0kts
06-May-18 14:11 33.403238 -118.415553 301 1605ft 0kts
06-May-18 14:12 33.403238 -118.415553 301 1605ft 0kts
06-May-18 14:13 33.403238 -118.415553 301 1605ft 0kts
06-May-18 14:14 33.403238 -118.415553 301 1605ft 0kts
06-May-18 14:15 33.403238 -118.415553 301 1605ft 0kts
06-May-18 14:16 33.403238 -118.415553 301 1605ft 0kts
06-May-18 14:17 33.403238 -118.415553 301 1605ft 0kts
06-May-18 14:18 33.403238 -118.415553 301 1605ft 0kts
06-May-18 14:19 33.403238 -118.415553 301 1605ft 0kts
06-May-18 14:20 33.403238 -118.415553 301 1605ft 0kts
06-May-18 14:21 33.403238 -118.415553 301 1605ft 0kts
06-May-18 14:22 33.403238 -118.415553 301 1605ft 0kts
06-May-18 14:23 33.403238 -118.415553 301 1605ft 0kts
06-May-18 14:24 33.403238 -118.415553 301 1605ft 0kts
06-May-18 14:25 33.403238 -118.415553 301 1605ft 0kts
06-May-18 14:26 33.403238 -118.415553 301 1605ft 0kts
06-May-18 14:27 33.403238 -118.415553 301 1605ft 0kts
06-May-18 14:28 33.403238 -118.415553 301 1605ft 0kts
06-May-18 14:29 33.403238 -118.415553 301 1605ft 0kts
06-May-18 14:30 33.403238 -118.415553 301 1605ft 0kts
06-May-18 14:31 33.403238 -118.415553 301 1605ft 0kts
06-May-18 14:32 33.403238 -118.415553 301 1605ft 0kts
06-May-18 14:33 33.403238 -118.415553 301 1605ft 0kts
06-May-18 14:34 33.403238 -118.415553 301 1605ft 0kts
06-May-18 14:35 33.403239 -118.415555 301 1605ft 0kts
06-May-18 14:36 33.403243 -118.415562 301 1605ft 0kts
06-May-18 14:37 33.403282 -118.415638 300 1605ft 7kts
06-May-18 14:38 33.402566 -118.419906 53 1605ft 11kts
06-May-18 14:39 33.413148 -118.398241 68 2054ft 109kts
06-May-18 14:40 33.415160 -118.360953 101 2742ft 119kts
06-May-18 14:41 33.397570 -118.370588 296 3198ft 119kts
06-May-18 14:42 33.398510 -118.409164 227 3711ft 124kts
06-May-18 14:43 33.372403 -118.399240 116 4224ft 130kts
06-May-18 14:44 33.370225 -118.355934 91 4769ft 138kts
06-May-18 14:45 33.366073 -118.309189 98 5042ft 142kts
06-May-18 14:46 33.360646 -118.260658 95 5054ft 152kts
06-May-18 14:47 33.348461 -118.211736 97 5062ft 153kts
06-May-18 14:48 33.342708 -118.160824 97 5085ft 155kts
06-May-18 14:49 33.336717 -118.109195 98 5103ft 156kts
06-May-18 14:50 33.331010 -118.057912 97 5174ft 154kts
06-May-18 14:51 33.325540 -118.006732 98 5225ft 156kts
06-May-18 14:52 33.319902 -117.954927 97 5268ft 156kts
06-May-18 14:53 33.312456 -117.902358 104 5035ft 166kts
06-May-18 14:54 33.302026 -117.851137 100 5178ft 156kts
06-May-18 14:55 33.295786 -117.799454 98 5215ft 158kts
06-May-18 14:56 33.280555 -117.750824 121 5226ft 157kts
06-May-18 14:57 33.265749 -117.701766 98 5230ft 159kts
06-May-18 14:58 33.264244 -117.648711 95 5231ft 160kts
06-May-18 14:59 33.259141 -117.595861 98 5232ft 159kts
06-May-18 15:00 33.253798 -117.543038 97 5233ft 160kts
06-May-18 15:01 33.251244 -117.489981 94 5234ft 160kts
06-May-18 15:02 33.246655 -117.437430 111 5232ft 158kts
06-May-18 15:03 33.221748 -117.398785 178 5219ft 153kts
06-May-18 15:03 33.186674 -117.394553 160 5227ft 156kts
06-May-18 15:05 33.138764 -117.375746 162 5226ft 154kts
06-May-18 15:06 33.097982 -117.359059 161 5234ft 154kts
06-May-18 15:07 33.057306 -117.342585 162 5237ft 154kts
06-May-18 15:08 33.016653 -117.326037 162 5248ft 154kts
06-May-18 15:08 32.983354 -117.309786 158 5262ft 155kts
06-May-18 15:09 32.942270 -117.295646 184 5288ft 155kts
06-May-18 15:10 32.901156 -117.291226 133 5288ft 156kts
06-May-18 15:11 32.882690 -117.244308 113 5319ft 159kts
06-May-18 15:12 32.865361 -117.194373 114 5315ft 164kts
06-May-18 15:13 32.848259 -117.144795 113 5317ft 160kts
06-May-18 15:14 32.831220 -117.095686 113 5315ft 160kts
06-May-18 15:15 32.813141 -117.047563 118 4854ft 159kts
06-May-18 15:16 32.793332 -117.005745 120 3914ft 130kts
06-May-18 15:17 32.771370 -116.968351 127 3992ft 143kts
06-May-18 15:18 32.755383 -116.925446 130 4004ft 143kts
06-May-18 15:19 32.716780 -116.922877 184 4023ft 138kts
06-May-18 15:20 32.678696 -116.926668 185 4066ft 136kts
06-May-18 15:21 32.642045 -116.935198 231 3866ft 137kts
06-May-18 15:22 32.661838 -116.967363 331 4030ft 137kts
06-May-18 15:23 32.689073 -116.994942 291 3416ft 129kts
06-May-18 15:24 32.697145 -117.032883 288 2666ft 119kts
06-May-18 15:25 32.704662 -117.069081 284 2655ft 111kts
06-May-18 15:26 32.711764 -117.101630 290 1938ft 93kts
06-May-18 15:27 32.722780 -117.132372 275 1114ft 100kts
06-May-18 15:28 32.726828 -117.161566 287 377ft 82kts
06-May-18 15:29 32.733015 -117.187308 278 18ft 60kts
06-May-18 15:30 32.733216 -117.191669 207 18ft 0kts
06-May-18 15:31 32.732770 -117.191943 206 18ft 1kts
06-May-18 15:32 32.731299 -117.192240 127 18ft 0kts
06-May-18 15:33 32.731296 -117.192236 127 18ft 0kts
06-May-18 15:34 32.731296 -117.192235 127 18ft 0kts
06-May-18 15:35 32.731296 -117.192235 127 18ft 0kts
06-May-18 15:37 32.731296 -117.192235 127 18ft 0kts
06-May-18 15:38 32.731296 -117.192235 127 18ft 0kts
06-May-18 15:39 32.731296 -117.192235 127 18ft 0kts
06-May-18 15:40 32.731296 -117.192235 127 18ft 0kts
06-May-18 15:41 32.731296 -117.192235 127 18ft 0kts
06-May-18 15:42 32.731296 -117.192235 127 18ft 0kts
06-May-18 15:43 32.731296 -117.192235 127 18ft 0kts
06-May-18 15:44 32.731296 -117.192235 127 18ft 0kts
06-May-18 15:45 32.731296 -117.192235 127 18ft 0kts

Navigation Log

Ident Type
1. KAVX Airport
2. SXC Navaid
3. AVOLS Fix
4. PACIF Fix
5. HUBRD Fix
6. OCN Navaid
7. HURSI Fix
8. CARIF Fix
9. MZB Navaid
10. KSAN Airport